Capitol Logistics 365


KRFD
Chicago/Rockford International Airport
Rockford, Illinois, US
CYHZ
Robert L. Stanfield International Airport
Halifax, , CA

Route Details

Aircraft Information
Primary: Boeing 767-300BDSF
Backup: Not Available
Route Data
Distance: 1123nm
Sched. Duration: 2h 45m
Avg. Duration: 2h 44m (-0m)
Times Flown: 10
Recm'd Route: RONIC ADALE FNT Q822 ALLEX FUNDY3
Planned Altitude: 35,000ft
Origin Wx: KRFD 060954Z 00000KT 10SM CLR 21/18 A3000 RMK AO2 SLP151 T02110183
Dest. Wx: CYHZ 061032Z 12006KT 7SM BKN007 OVC011 12/12 A3007 RMK SF7NS1 SLP187
Notes:

Financial History
Total Freight: 434,412lbs
Average Load: 43,441lbs/flt
Fuel Used: 244,903lbs
Avg. Fuel Used: 24,490lbs/flt
Fuel Expense: $179,695
Avg. Fuel Expense: $17,970
Avg. Fuel Cost: $0.73/lbs
Total Gross Income: $628,761
Pilot Pay: $2,250
Total Expenses: $68,426
Total Revenue: $373,904
Average Revenue: $62,876.11